sensor_id;sensor_type;location;lat;lon;timestamp;P1;durP1;ratioP1;P2;durP2;ratioP2
9445;SDS011;4761;49.490;10.908;2023-04-25T00:01:35;0.70;;;0.70;;
9445;SDS011;4761;49.490;10.908;2023-04-25T00:04:01;0.90;;;0.90;;
9445;SDS011;4761;49.490;10.908;2023-04-25T00:06:27;1.00;;;0.90;;
9445;SDS011;4761;49.490;10.908;2023-04-25T00:08:54;0.83;;;0.80;;
9445;SDS011;4761;49.490;10.908;2023-04-25T00:11:21;0.70;;;0.70;;
9445;SDS011;4761;49.490;10.908;2023-04-25T00:13:47;0.83;;;0.77;;
9445;SDS011;4761;49.490;10.908;2023-04-25T00:16:14;0.90;;;0.70;;
9445;SDS011;4761;49.490;10.908;2023-04-25T00:18:41;0.70;;;0.70;;
9445;SDS011;4761;49.490;10.908;2023-04-25T00:21:07;0.70;;;0.70;;
9445;SDS011;4761;49.490;10.908;2023-04-25T00:23:32;0.90;;;0.90;;
9445;SDS011;4761;49.490;10.908;2023-04-25T00:26:00;0.70;;;0.70;;
9445;SDS011;4761;49.490;10.908;2023-04-25T00:28:26;0.70;;;0.70;;
9445;SDS011;4761;49.490;10.908;2023-04-25T00:30:51;1.10;;;0.80;;
9445;SDS011;4761;49.490;10.908;2023-04-25T00:33:17;0.70;;;0.70;;
9445;SDS011;4761;49.490;10.908;2023-04-25T00:35:42;0.90;;;0.90;;
9445;SDS011;4761;49.490;10.908;2023-04-25T00:38:08;0.60;;;0.60;;
9445;SDS011;4761;49.490;10.908;2023-04-25T00:40:33;1.00;;;0.90;;
9445;SDS011;4761;49.490;10.908;2023-04-25T00:42:59;1.27;;;0.80;;
9445;SDS011;4761;49.490;10.908;2023-04-25T00:45:27;0.80;;;0.77;;
9445;SDS011;4761;49.490;10.908;2023-04-25T00:47:54;0.80;;;0.77;;
9445;SDS011;4761;49.490;10.908;2023-04-25T00:50:20;0.93;;;0.90;;
9445;SDS011;4761;49.490;10.908;2023-04-25T00:52:45;1.10;;;0.80;;
9445;SDS011;4761;49.490;10.908;2023-04-25T00:55:11;0.63;;;0.63;;
9445;SDS011;4761;49.490;10.908;2023-04-25T00:57:37;0.77;;;0.77;;
9445;SDS011;4761;49.490;10.908;2023-04-25T01:00:04;0.70;;;0.70;;
9445;SDS011;4761;49.490;10.908;2023-04-25T01:02:31;0.70;;;0.70;;
9445;SDS011;4761;49.490;10.908;2023-04-25T01:04:58;0.60;;;0.60;;
9445;SDS011;4761;49.490;10.908;2023-04-25T01:07:24;0.77;;;0.77;;
9445;SDS011;4761;49.490;10.908;2023-04-25T01:09:53;0.80;;;0.80;;
9445;SDS011;4761;49.490;10.908;2023-04-25T01:12:19;0.70;;;0.70;;
9445;SDS011;4761;49.490;10.908;2023-04-25T01:14:45;0.70;;;0.70;;
9445;SDS011;4761;49.490;10.908;2023-04-25T01:17:11;0.67;;;0.67;;
9445;SDS011;4761;49.490;10.908;2023-04-25T01:19:37;0.80;;;0.80;;
9445;SDS011;4761;49.490;10.908;2023-04-25T01:22:03;0.73;;;0.73;;
9445;SDS011;4761;49.490;10.908;2023-04-25T01:24:30;0.60;;;0.60;;
9445;SDS011;4761;49.490;10.908;2023-04-25T01:26:57;0.70;;;0.70;;
9445;SDS011;4761;49.490;10.908;2023-04-25T01:29:25;0.80;;;0.70;;
9445;SDS011;4761;49.490;10.908;2023-04-25T01:31:51;0.63;;;0.63;;
9445;SDS011;4761;49.490;10.908;2023-04-25T01:34:18;0.70;;;0.70;;
9445;SDS011;4761;49.490;10.908;2023-04-25T01:36:43;1.00;;;0.70;;
9445;SDS011;4761;49.490;10.908;2023-04-25T01:39:09;0.70;;;0.70;;
9445;SDS011;4761;49.490;10.908;2023-04-25T01:41:34;0.60;;;0.60;;
9445;SDS011;4761;49.490;10.908;2023-04-25T01:44:00;0.70;;;0.70;;
9445;SDS011;4761;49.490;10.908;2023-04-25T01:46:26;0.70;;;0.70;;
9445;SDS011;4761;49.490;10.908;2023-04-25T01:48:52;0.67;;;0.67;;
9445;SDS011;4761;49.490;10.908;2023-04-25T01:51:18;0.50;;;0.50;;
9445;SDS011;4761;49.490;10.908;2023-04-25T01:53:43;0.60;;;0.60;;
9445;SDS011;4761;49.490;10.908;2023-04-25T01:56:09;0.70;;;0.70;;
9445;SDS011;4761;49.490;10.908;2023-04-25T01:58:35;0.87;;;0.73;;
9445;SDS011;4761;49.490;10.908;2023-04-25T02:01:00;0.77;;;0.70;;
9445;SDS011;4761;49.490;10.908;2023-04-25T02:03:26;0.63;;;0.63;;
9445;SDS011;4761;49.490;10.908;2023-04-25T02:05:51;0.60;;;0.60;;
9445;SDS011;4761;49.490;10.908;2023-04-25T02:08:17;0.60;;;0.60;;
9445;SDS011;4761;49.490;10.908;2023-04-25T02:10:43;0.70;;;0.70;;
9445;SDS011;4761;49.490;10.908;2023-04-25T02:13:09;0.67;;;0.67;;
9445;SDS011;4761;49.490;10.908;2023-04-25T02:15:34;0.67;;;0.67;;
9445;SDS011;4761;49.490;10.908;2023-04-25T02:18:00;0.80;;;0.70;;
9445;SDS011;4761;49.490;10.908;2023-04-25T02:20:27;0.97;;;0.70;;
9445;SDS011;4761;49.490;10.908;2023-04-25T02:22:53;0.70;;;0.63;;
9445;SDS011;4761;49.490;10.908;2023-04-25T02:25:19;0.97;;;0.87;;
9445;SDS011;4761;49.490;10.908;2023-04-25T02:27:45;0.80;;;0.80;;
9445;SDS011;4761;49.490;10.908;2023-04-25T02:30:12;0.60;;;0.60;;
9445;SDS011;4761;49.490;10.908;2023-04-25T02:32:38;0.70;;;0.70;;
9445;SDS011;4761;49.490;10.908;2023-04-25T02:35:04;0.70;;;0.70;;
9445;SDS011;4761;49.490;10.908;2023-04-25T02:37:32;0.63;;;0.63;;
9445;SDS011;4761;49.490;10.908;2023-04-25T02:39:59;0.77;;;0.77;;
9445;SDS011;4761;49.490;10.908;2023-04-25T02:42:26;0.70;;;0.70;;
9445;SDS011;4761;49.490;10.908;2023-04-25T02:44:52;0.70;;;0.70;;
9445;SDS011;4761;49.490;10.908;2023-04-25T02:47:17;0.80;;;0.80;;
9445;SDS011;4761;49.490;10.908;2023-04-25T02:49:43;0.80;;;0.80;;
9445;SDS011;4761;49.490;10.908;2023-04-25T02:52:08;0.70;;;0.60;;
9445;SDS011;4761;49.490;10.908;2023-04-25T02:54:34;0.80;;;0.70;;
9445;SDS011;4761;49.490;10.908;2023-04-25T02:56:59;1.10;;;0.80;;
9445;SDS011;4761;49.490;10.908;2023-04-25T02:59:27;0.83;;;0.80;;
9445;SDS011;4761;49.490;10.908;2023-04-25T03:01:52;0.83;;;0.80;;
9445;SDS011;4761;49.490;10.908;2023-04-25T03:04:18;1.23;;;0.77;;
9445;SDS011;4761;49.490;10.908;2023-04-25T03:06:44;0.90;;;0.90;;
9445;SDS011;4761;49.490;10.908;2023-04-25T03:09:09;0.70;;;0.70;;
9445;SDS011;4761;49.490;10.908;2023-04-25T03:11:36;0.80;;;0.80;;
9445;SDS011;4761;49.490;10.908;2023-04-25T03:14:03;0.70;;;0.70;;
9445;SDS011;4761;49.490;10.908;2023-04-25T03:16:29;0.80;;;0.80;;
9445;SDS011;4761;49.490;10.908;2023-04-25T03:18:55;0.77;;;0.77;;
9445;SDS011;4761;49.490;10.908;2023-04-25T03:21:21;0.70;;;0.70;;
9445;SDS011;4761;49.490;10.908;2023-04-25T03:23:47;0.77;;;0.70;;
9445;SDS011;4761;49.490;10.908;2023-04-25T03:26:13;0.70;;;0.70;;
9445;SDS011;4761;49.490;10.908;2023-04-25T03:28:38;0.90;;;0.90;;
9445;SDS011;4761;49.490;10.908;2023-04-25T03:31:05;1.03;;;0.93;;
9445;SDS011;4761;49.490;10.908;2023-04-25T03:33:30;0.83;;;0.80;;
9445;SDS011;4761;49.490;10.908;2023-04-25T03:35:56;2.37;;;1.17;;
9445;SDS011;4761;49.490;10.908;2023-04-25T03:38:21;0.80;;;0.80;;
9445;SDS011;4761;49.490;10.908;2023-04-25T03:40:47;1.10;;;1.00;;
9445;SDS011;4761;49.490;10.908;2023-04-25T03:43:12;1.10;;;1.00;;
9445;SDS011;4761;49.490;10.908;2023-04-25T03:45:38;0.97;;;0.80;;
9445;SDS011;4761;49.490;10.908;2023-04-25T03:48:03;0.70;;;0.70;;
9445;SDS011;4761;49.490;10.908;2023-04-25T03:50:29;0.80;;;0.80;;
9445;SDS011;4761;49.490;10.908;2023-04-25T03:52:54;0.93;;;0.90;;
9445;SDS011;4761;49.490;10.908;2023-04-25T03:55:20;1.20;;;1.10;;
9445;SDS011;4761;49.490;10.908;2023-04-25T03:57:45;0.90;;;0.90;;
9445;SDS011;4761;49.490;10.908;2023-04-25T04:00:11;1.00;;;0.93;;
9445;SDS011;4761;49.490;10.908;2023-04-25T04:02:37;0.90;;;0.90;;
9445;SDS011;4761;49.490;10.908;2023-04-25T04:05:03;0.97;;;0.97;;
9445;SDS011;4761;49.490;10.908;2023-04-25T04:07:30;1.00;;;1.00;;
9445;SDS011;4761;49.490;10.908;2023-04-25T04:09:57;1.20;;;1.10;;
9445;SDS011;4761;49.490;10.908;2023-04-25T04:12:23;1.17;;;1.07;;
9445;SDS011;4761;49.490;10.908;2023-04-25T04:14:49;0.70;;;0.70;;
9445;SDS011;4761;49.490;10.908;2023-04-25T04:17:14;2.27;;;0.80;;
9445;SDS011;4761;49.490;10.908;2023-04-25T04:19:40;1.00;;;1.00;;
9445;SDS011;4761;49.490;10.908;2023-04-25T04:22:06;0.80;;;0.80;;
9445;SDS011;4761;49.490;10.908;2023-04-25T04:24:31;1.20;;;0.83;;
9445;SDS011;4761;49.490;10.908;2023-04-25T04:26:57;1.20;;;1.10;;
9445;SDS011;4761;49.490;10.908;2023-04-25T04:29:23;0.90;;;0.90;;
9445;SDS011;4761;49.490;10.908;2023-04-25T04:31:49;1.17;;;1.07;;
9445;SDS011;4761;49.490;10.908;2023-04-25T04:34:18;1.17;;;1.07;;
9445;SDS011;4761;49.490;10.908;2023-04-25T04:36:44;1.20;;;0.97;;
9445;SDS011;4761;49.490;10.908;2023-04-25T04:39:11;1.43;;;1.00;;
9445;SDS011;4761;49.490;10.908;2023-04-25T04:41:37;1.20;;;1.07;;
9445;SDS011;4761;49.490;10.908;2023-04-25T04:44:04;1.10;;;1.00;;
9445;SDS011;4761;49.490;10.908;2023-04-25T04:46:29;0.80;;;0.80;;
9445;SDS011;4761;49.490;10.908;2023-04-25T04:49:02;1.10;;;1.00;;
9445;SDS011;4761;49.490;10.908;2023-04-25T04:51:31;0.87;;;0.87;;
9445;SDS011;4761;49.490;10.908;2023-04-25T04:53:56;1.00;;;1.00;;
9445;SDS011;4761;49.490;10.908;2023-04-25T04:56:23;1.23;;;0.80;;
9445;SDS011;4761;49.490;10.908;2023-04-25T04:58:50;1.10;;;1.00;;
9445;SDS011;4761;49.490;10.908;2023-04-25T05:01:16;1.47;;;1.20;;
9445;SDS011;4761;49.490;10.908;2023-04-25T05:03:41;0.80;;;0.80;;
9445;SDS011;4761;49.490;10.908;2023-04-25T05:06:07;0.90;;;0.90;;
9445;SDS011;4761;49.490;10.908;2023-04-25T05:08:33;1.03;;;0.97;;
9445;SDS011;4761;49.490;10.908;2023-04-25T05:10:59;0.93;;;0.93;;
9445;SDS011;4761;49.490;10.908;2023-04-25T05:13:25;0.90;;;0.90;;
9445;SDS011;4761;49.490;10.908;2023-04-25T05:15:50;1.00;;;1.00;;
9445;SDS011;4761;49.490;10.908;2023-04-25T05:18:16;1.27;;;1.00;;
9445;SDS011;4761;49.490;10.908;2023-04-25T05:20:41;1.00;;;0.90;;
9445;SDS011;4761;49.490;10.908;2023-04-25T05:23:07;1.13;;;1.03;;
9445;SDS011;4761;49.490;10.908;2023-04-25T05:25:32;0.90;;;0.90;;
9445;SDS011;4761;49.490;10.908;2023-04-25T05:27:58;1.10;;;1.00;;
9445;SDS011;4761;49.490;10.908;2023-04-25T05:30:24;1.93;;;1.10;;
9445;SDS011;4761;49.490;10.908;2023-04-25T05:32:49;1.20;;;1.10;;
9445;SDS011;4761;49.490;10.908;2023-04-25T05:35:15;0.80;;;0.80;;
9445;SDS011;4761;49.490;10.908;2023-04-25T05:37:41;1.20;;;1.07;;
9445;SDS011;4761;49.490;10.908;2023-04-25T05:40:07;0.63;;;0.63;;
9445;SDS011;4761;49.490;10.908;2023-04-25T05:42:33;0.90;;;0.80;;
9445;SDS011;4761;49.490;10.908;2023-04-25T05:44:59;0.90;;;0.90;;
9445;SDS011;4761;49.490;10.908;2023-04-25T05:47:25;0.80;;;0.80;;
9445;SDS011;4761;49.490;10.908;2023-04-25T05:49:51;0.80;;;0.80;;
9445;SDS011;4761;49.490;10.908;2023-04-25T05:52:16;0.97;;;0.97;;
9445;SDS011;4761;49.490;10.908;2023-04-25T05:54:42;0.90;;;0.90;;
9445;SDS011;4761;49.490;10.908;2023-04-25T05:57:07;1.00;;;0.90;;
9445;SDS011;4761;49.490;10.908;2023-04-25T05:59:33;0.90;;;0.90;;
9445;SDS011;4761;49.490;10.908;2023-04-25T06:01:59;0.93;;;0.90;;
9445;SDS011;4761;49.490;10.908;2023-04-25T06:04:25;0.80;;;0.80;;
9445;SDS011;4761;49.490;10.908;2023-04-25T06:06:51;0.97;;;0.80;;
9445;SDS011;4761;49.490;10.908;2023-04-25T06:09:16;0.90;;;0.90;;
9445;SDS011;4761;49.490;10.908;2023-04-25T06:11:42;1.10;;;1.00;;
9445;SDS011;4761;49.490;10.908;2023-04-25T06:14:07;1.00;;;1.00;;
9445;SDS011;4761;49.490;10.908;2023-04-25T06:16:33;0.90;;;0.90;;
9445;SDS011;4761;49.490;10.908;2023-04-25T06:18:58;1.07;;;1.00;;
9445;SDS011;4761;49.490;10.908;2023-04-25T06:21:24;0.80;;;0.80;;
9445;SDS011;4761;49.490;10.908;2023-04-25T06:23:50;0.97;;;0.93;;
9445;SDS011;4761;49.490;10.908;2023-04-25T06:26:16;1.00;;;0.90;;
9445;SDS011;4761;49.490;10.908;2023-04-25T06:28:41;1.00;;;1.00;;
9445;SDS011;4761;49.490;10.908;2023-04-25T06:31:07;1.10;;;1.00;;
9445;SDS011;4761;49.490;10.908;2023-04-25T06:33:32;1.10;;;1.00;;
9445;SDS011;4761;49.490;10.908;2023-04-25T06:35:58;0.90;;;0.90;;
9445;SDS011;4761;49.490;10.908;2023-04-25T06:38:23;0.80;;;0.80;;
9445;SDS011;4761;49.490;10.908;2023-04-25T06:40:49;0.80;;;0.80;;
9445;SDS011;4761;49.490;10.908;2023-04-25T06:43:14;0.80;;;0.80;;
9445;SDS011;4761;49.490;10.908;2023-04-25T06:45:40;1.00;;;0.87;;
9445;SDS011;4761;49.490;10.908;2023-04-25T06:48:05;0.97;;;0.87;;
9445;SDS011;4761;49.490;10.908;2023-04-25T06:50:31;0.80;;;0.80;;
9445;SDS011;4761;49.490;10.908;2023-04-25T06:52:56;0.80;;;0.80;;
9445;SDS011;4761;49.490;10.908;2023-04-25T06:55:22;1.10;;;1.00;;
9445;SDS011;4761;49.490;10.908;2023-04-25T06:57:47;0.90;;;0.80;;
9445;SDS011;4761;49.490;10.908;2023-04-25T07:00:13;0.87;;;0.87;;
9445;SDS011;4761;49.490;10.908;2023-04-25T07:02:39;0.90;;;0.80;;
9445;SDS011;4761;49.490;10.908;2023-04-25T07:05:05;0.93;;;0.93;;
9445;SDS011;4761;49.490;10.908;2023-04-25T07:07:31;1.43;;;0.70;;
9445;SDS011;4761;49.490;10.908;2023-04-25T07:09:56;0.93;;;0.93;;
9445;SDS011;4761;49.490;10.908;2023-04-25T07:12:22;0.70;;;0.70;;
9445;SDS011;4761;49.490;10.908;2023-04-25T07:14:47;0.67;;;0.67;;
9445;SDS011;4761;49.490;10.908;2023-04-25T07:17:13;0.80;;;0.80;;
9445;SDS011;4761;49.490;10.908;2023-04-25T07:19:38;0.80;;;0.80;;
9445;SDS011;4761;49.490;10.908;2023-04-25T07:22:04;0.80;;;0.80;;
9445;SDS011;4761;49.490;10.908;2023-04-25T07:24:31;1.00;;;0.90;;
9445;SDS011;4761;49.490;10.908;2023-04-25T07:26:56;0.80;;;0.80;;
9445;SDS011;4761;49.490;10.908;2023-04-25T07:29:23;0.70;;;0.70;;
9445;SDS011;4761;49.490;10.908;2023-04-25T07:31:48;0.80;;;0.80;;
9445;SDS011;4761;49.490;10.908;2023-04-25T07:34:14;0.97;;;0.70;;
9445;SDS011;4761;49.490;10.908;2023-04-25T07:36:40;0.90;;;0.90;;
9445;SDS011;4761;49.490;10.908;2023-04-25T07:39:06;0.70;;;0.70;;
9445;SDS011;4761;49.490;10.908;2023-04-25T07:41:33;0.80;;;0.80;;
9445;SDS011;4761;49.490;10.908;2023-04-25T07:43:59;0.80;;;0.80;;
9445;SDS011;4761;49.490;10.908;2023-04-25T07:46:25;0.70;;;0.70;;
9445;SDS011;4761;49.490;10.908;2023-04-25T07:48:50;0.83;;;0.83;;
9445;SDS011;4761;49.490;10.908;2023-04-25T07:51:16;0.90;;;0.90;;
9445;SDS011;4761;49.490;10.908;2023-04-25T07:53:44;0.90;;;0.90;;
9445;SDS011;4761;49.490;10.908;2023-04-25T07:56:10;1.60;;;1.10;;
9445;SDS011;4761;49.490;10.908;2023-04-25T07:58:35;1.10;;;1.00;;
9445;SDS011;4761;49.490;10.908;2023-04-25T08:01:01;1.17;;;1.00;;
9445;SDS011;4761;49.490;10.908;2023-04-25T08:03:27;1.13;;;1.00;;
9445;SDS011;4761;49.490;10.908;2023-04-25T08:05:52;1.20;;;1.10;;
9445;SDS011;4761;49.490;10.908;2023-04-25T08:08:18;1.37;;;1.13;;
9445;SDS011;4761;49.490;10.908;2023-04-25T08:10:43;2.00;;;1.00;;
9445;SDS011;4761;49.490;10.908;2023-04-25T08:13:09;1.10;;;1.00;;
9445;SDS011;4761;49.490;10.908;2023-04-25T08:15:34;1.20;;;1.10;;
9445;SDS011;4761;49.490;10.908;2023-04-25T08:18:00;1.30;;;1.20;;
9445;SDS011;4761;49.490;10.908;2023-04-25T08:20:25;1.20;;;1.10;;
9445;SDS011;4761;49.490;10.908;2023-04-25T08:22:51;1.23;;;1.13;;
9445;SDS011;4761;49.490;10.908;2023-04-25T08:25:17;1.20;;;1.10;;
9445;SDS011;4761;49.490;10.908;2023-04-25T08:27:42;1.30;;;1.20;;
9445;SDS011;4761;49.490;10.908;2023-04-25T08:30:08;1.27;;;1.17;;
9445;SDS011;4761;49.490;10.908;2023-04-25T08:32:34;1.07;;;1.00;;
9445;SDS011;4761;49.490;10.908;2023-04-25T08:34:59;1.20;;;1.10;;
9445;SDS011;4761;49.490;10.908;2023-04-25T08:37:25;1.77;;;1.23;;
9445;SDS011;4761;49.490;10.908;2023-04-25T08:39:50;1.27;;;1.10;;
9445;SDS011;4761;49.490;10.908;2023-04-25T08:42:19;1.17;;;1.00;;
9445;SDS011;4761;49.490;10.908;2023-04-25T08:44:46;1.10;;;1.00;;
9445;SDS011;4761;49.490;10.908;2023-04-25T08:47:13;1.17;;;1.07;;
9445;SDS011;4761;49.490;10.908;2023-04-25T08:49:38;1.30;;;1.07;;
9445;SDS011;4761;49.490;10.908;2023-04-25T08:52:07;1.00;;;0.90;;
9445;SDS011;4761;49.490;10.908;2023-04-25T08:54:35;1.33;;;1.00;;
9445;SDS011;4761;49.490;10.908;2023-04-25T08:57:02;1.20;;;1.10;;
9445;SDS011;4761;49.490;10.908;2023-04-25T08:59:29;1.30;;;1.17;;
9445;SDS011;4761;49.490;10.908;2023-04-25T09:01:56;1.00;;;0.93;;
9445;SDS011;4761;49.490;10.908;2023-04-25T09:04:22;1.23;;;1.13;;
9445;SDS011;4761;49.490;10.908;2023-04-25T09:06:48;1.23;;;1.00;;
9445;SDS011;4761;49.490;10.908;2023-04-25T09:09:14;1.70;;;1.20;;
9445;SDS011;4761;49.490;10.908;2023-04-25T09:11:39;0.80;;;0.80;;
9445;SDS011;4761;49.490;10.908;2023-04-25T09:16:56;1.43;;;1.07;;
9445;SDS011;4761;49.490;10.908;2023-04-25T09:21:49;2.03;;;1.00;;
9445;SDS011;4761;49.490;10.908;2023-04-25T09:24:15;1.20;;;1.10;;
9445;SDS011;4761;49.490;10.908;2023-04-25T09:26:44;0.83;;;0.83;;
9445;SDS011;4761;49.490;10.908;2023-04-25T09:29:09;1.17;;;1.07;;
9445;SDS011;4761;49.490;10.908;2023-04-25T09:31:35;1.00;;;1.00;;
9445;SDS011;4761;49.490;10.908;2023-04-25T09:34:01;1.00;;;1.00;;
9445;SDS011;4761;49.490;10.908;2023-04-25T09:36:27;1.03;;;0.90;;
9445;SDS011;4761;49.490;10.908;2023-04-25T09:38:54;1.00;;;0.97;;
9445;SDS011;4761;49.490;10.908;2023-04-25T09:41:24;1.00;;;1.00;;
9445;SDS011;4761;49.490;10.908;2023-04-25T09:43:50;1.10;;;1.00;;
9445;SDS011;4761;49.490;10.908;2023-04-25T09:46:16;1.13;;;0.87;;
9445;SDS011;4761;49.490;10.908;2023-04-25T09:48:47;0.80;;;0.80;;
9445;SDS011;4761;49.490;10.908;2023-04-25T09:51:15;0.97;;;0.97;;
9445;SDS011;4761;49.490;10.908;2023-04-25T09:53:44;1.10;;;0.90;;
9445;SDS011;4761;49.490;10.908;2023-04-25T09:56:15;0.90;;;0.90;;
9445;SDS011;4761;49.490;10.908;2023-04-25T09:58:41;1.03;;;0.90;;
9445;SDS011;4761;49.490;10.908;2023-04-25T10:01:07;0.77;;;0.77;;
9445;SDS011;4761;49.490;10.908;2023-04-25T10:03:35;1.03;;;0.93;;
9445;SDS011;4761;49.490;10.908;2023-04-25T10:06:02;2.23;;;1.00;;
9445;SDS011;4761;49.490;10.908;2023-04-25T10:08:32;1.23;;;1.00;;
9445;SDS011;4761;49.490;10.908;2023-04-25T10:10:59;1.03;;;0.90;;
9445;SDS011;4761;49.490;10.908;2023-04-25T10:13:27;1.47;;;0.90;;
9445;SDS011;4761;49.490;10.908;2023-04-25T10:15:54;0.87;;;0.83;;
9445;SDS011;4761;49.490;10.908;2023-04-25T10:18:22;1.00;;;0.90;;
9445;SDS011;4761;49.490;10.908;2023-04-25T10:20:49;1.43;;;0.90;;
9445;SDS011;4761;49.490;10.908;2023-04-25T10:23:15;0.73;;;0.73;;
9445;SDS011;4761;49.490;10.908;2023-04-25T10:25:42;1.87;;;0.77;;
9445;SDS011;4761;49.490;10.908;2023-04-25T10:28:08;0.90;;;0.90;;
9445;SDS011;4761;49.490;10.908;2023-04-25T10:30:33;0.97;;;0.77;;
9445;SDS011;4761;49.490;10.908;2023-04-25T10:32:59;1.07;;;0.80;;
9445;SDS011;4761;49.490;10.908;2023-04-25T10:35:26;0.90;;;0.80;;
9445;SDS011;4761;49.490;10.908;2023-04-25T10:37:56;0.70;;;0.70;;
9445;SDS011;4761;49.490;10.908;2023-04-25T10:40:35;0.67;;;0.67;;
9445;SDS011;4761;49.490;10.908;2023-04-25T10:46:00;1.27;;;0.60;;
9445;SDS011;4761;49.490;10.908;2023-04-25T10:48:26;0.87;;;0.70;;
9445;SDS011;4761;49.490;10.908;2023-04-25T10:51:06;0.77;;;0.77;;
9445;SDS011;4761;49.490;10.908;2023-04-25T10:53:36;0.80;;;0.80;;
9445;SDS011;4761;49.490;10.908;2023-04-25T10:56:17;1.03;;;0.90;;
9445;SDS011;4761;49.490;10.908;2023-04-25T10:58:45;0.80;;;0.80;;
9445;SDS011;4761;49.490;10.908;2023-04-25T11:01:15;0.73;;;0.73;;
9445;SDS011;4761;49.490;10.908;2023-04-25T11:03:56;1.33;;;0.70;;
9445;SDS011;4761;49.490;10.908;2023-04-25T11:06:23;0.80;;;0.80;;
9445;SDS011;4761;49.490;10.908;2023-04-25T11:09:11;3.03;;;0.70;;
9445;SDS011;4761;49.490;10.908;2023-04-25T11:11:38;1.00;;;0.80;;
9445;SDS011;4761;49.490;10.908;2023-04-25T11:14:03;0.77;;;0.77;;
9445;SDS011;4761;49.490;10.908;2023-04-25T11:16:29;1.07;;;0.80;;
9445;SDS011;4761;49.490;10.908;2023-04-25T11:18:56;0.70;;;0.70;;
9445;SDS011;4761;49.490;10.908;2023-04-25T11:21:23;0.70;;;0.70;;
9445;SDS011;4761;49.490;10.908;2023-04-25T11:23:51;0.80;;;0.70;;
9445;SDS011;4761;49.490;10.908;2023-04-25T11:26:16;1.30;;;0.60;;
9445;SDS011;4761;49.490;10.908;2023-04-25T11:28:45;1.00;;;1.00;;
9445;SDS011;4761;49.490;10.908;2023-04-25T11:31:11;0.80;;;0.73;;
9445;SDS011;4761;49.490;10.908;2023-04-25T11:33:36;1.37;;;0.80;;
9445;SDS011;4761;49.490;10.908;2023-04-25T11:36:02;0.97;;;0.77;;
9445;SDS011;4761;49.490;10.908;2023-04-25T11:38:27;0.90;;;0.80;;
9445;SDS011;4761;49.490;10.908;2023-04-25T11:40:53;0.70;;;0.70;;
9445;SDS011;4761;49.490;10.908;2023-04-25T11:43:20;0.80;;;0.80;;
9445;SDS011;4761;49.490;10.908;2023-04-25T11:45:47;0.60;;;0.60;;
9445;SDS011;4761;49.490;10.908;2023-04-25T11:48:14;0.60;;;0.60;;
9445;SDS011;4761;49.490;10.908;2023-04-25T11:50:39;1.73;;;0.90;;
9445;SDS011;4761;49.490;10.908;2023-04-25T11:53:05;0.70;;;0.70;;
9445;SDS011;4761;49.490;10.908;2023-04-25T11:55:31;0.77;;;0.73;;
9445;SDS011;4761;49.490;10.908;2023-04-25T11:57:58;0.80;;;0.80;;
9445;SDS011;4761;49.490;10.908;2023-04-25T12:00:25;0.70;;;0.70;;
9445;SDS011;4761;49.490;10.908;2023-04-25T12:02:52;1.10;;;0.70;;
9445;SDS011;4761;49.490;10.908;2023-04-25T12:05:19;0.60;;;0.60;;
9445;SDS011;4761;49.490;10.908;2023-04-25T12:07:48;1.07;;;0.60;;
9445;SDS011;4761;49.490;10.908;2023-04-25T12:10:14;0.60;;;0.60;;
9445;SDS011;4761;49.490;10.908;2023-04-25T12:12:41;0.80;;;0.70;;
9445;SDS011;4761;49.490;10.908;2023-04-25T12:15:11;0.73;;;0.70;;
9445;SDS011;4761;49.490;10.908;2023-04-25T12:17:40;0.60;;;0.60;;
9445;SDS011;4761;49.490;10.908;2023-04-25T12:20:07;0.60;;;0.60;;
9445;SDS011;4761;49.490;10.908;2023-04-25T12:22:45;0.70;;;0.70;;
9445;SDS011;4761;49.490;10.908;2023-04-25T12:25:13;0.73;;;0.60;;
9445;SDS011;4761;49.490;10.908;2023-04-25T12:31:00;2.57;;;0.80;;
9445;SDS011;4761;49.490;10.908;2023-04-25T12:33:31;0.53;;;0.50;;
9445;SDS011;4761;49.490;10.908;2023-04-25T12:36:02;0.90;;;0.90;;
9445;SDS011;4761;49.490;10.908;2023-04-25T12:38:35;0.73;;;0.73;;
9445;SDS011;4761;49.490;10.908;2023-04-25T12:41:02;0.40;;;0.40;;
9445;SDS011;4761;49.490;10.908;2023-04-25T12:43:28;0.60;;;0.60;;
9445;SDS011;4761;49.490;10.908;2023-04-25T12:45:54;0.73;;;0.67;;
9445;SDS011;4761;49.490;10.908;2023-04-25T12:48:21;1.83;;;0.73;;
9445;SDS011;4761;49.490;10.908;2023-04-25T12:50:47;0.50;;;0.50;;
9445;SDS011;4761;49.490;10.908;2023-04-25T12:53:20;0.97;;;0.67;;
9445;SDS011;4761;49.490;10.908;2023-04-25T12:55:48;0.80;;;0.60;;
9445;SDS011;4761;49.490;10.908;2023-04-25T12:58:14;0.60;;;0.60;;
9445;SDS011;4761;49.490;10.908;2023-04-25T13:00:40;0.50;;;0.50;;
9445;SDS011;4761;49.490;10.908;2023-04-25T13:03:06;0.70;;;0.70;;
9445;SDS011;4761;49.490;10.908;2023-04-25T13:05:31;0.70;;;0.70;;
9445;SDS011;4761;49.490;10.908;2023-04-25T13:07:57;0.60;;;0.60;;
9445;SDS011;4761;49.490;10.908;2023-04-25T13:10:22;0.73;;;0.73;;
9445;SDS011;4761;49.490;10.908;2023-04-25T13:12:48;0.70;;;0.70;;
9445;SDS011;4761;49.490;10.908;2023-04-25T13:15:14;0.60;;;0.60;;
9445;SDS011;4761;49.490;10.908;2023-04-25T13:17:40;0.80;;;0.60;;
9445;SDS011;4761;49.490;10.908;2023-04-25T13:20:07;0.70;;;0.70;;
9445;SDS011;4761;49.490;10.908;2023-04-25T13:22:34;0.90;;;0.80;;
9445;SDS011;4761;49.490;10.908;2023-04-25T13:25:04;0.80;;;0.80;;
9445;SDS011;4761;49.490;10.908;2023-04-25T13:27:30;2.40;;;0.80;;
9445;SDS011;4761;49.490;10.908;2023-04-25T13:29:58;0.80;;;0.80;;
9445;SDS011;4761;49.490;10.908;2023-04-25T13:32:32;0.70;;;0.70;;
9445;SDS011;4761;49.490;10.908;2023-04-25T13:35:02;0.80;;;0.70;;
9445;SDS011;4761;49.490;10.908;2023-04-25T13:37:28;0.70;;;0.70;;
9445;SDS011;4761;49.490;10.908;2023-04-25T13:39:55;0.60;;;0.60;;
9445;SDS011;4761;49.490;10.908;2023-04-25T13:42:21;0.83;;;0.73;;
9445;SDS011;4761;49.490;10.908;2023-04-25T13:44:48;0.70;;;0.70;;
9445;SDS011;4761;49.490;10.908;2023-04-25T13:47:13;0.80;;;0.80;;
9445;SDS011;4761;49.490;10.908;2023-04-25T13:49:39;1.87;;;0.97;;
9445;SDS011;4761;49.490;10.908;2023-04-25T13:52:04;4.30;;;1.17;;
9445;SDS011;4761;49.490;10.908;2023-04-25T13:54:30;2.90;;;1.00;;
9445;SDS011;4761;49.490;10.908;2023-04-25T13:56:56;4.93;;;1.33;;
9445;SDS011;4761;49.490;10.908;2023-04-25T13:59:23;9.43;;;1.07;;
9445;SDS011;4761;49.490;10.908;2023-04-25T14:01:50;3.37;;;1.20;;
9445;SDS011;4761;49.490;10.908;2023-04-25T14:04:16;3.60;;;1.30;;
9445;SDS011;4761;49.490;10.908;2023-04-25T14:06:41;2.83;;;0.90;;
9445;SDS011;4761;49.490;10.908;2023-04-25T14:09:07;2.83;;;1.00;;
9445;SDS011;4761;49.490;10.908;2023-04-25T14:11:35;2.50;;;0.77;;
9445;SDS011;4761;49.490;10.908;2023-04-25T14:14:03;4.70;;;0.90;;
9445;SDS011;4761;49.490;10.908;2023-04-25T14:16:29;2.20;;;1.30;;
9445;SDS011;4761;49.490;10.908;2023-04-25T14:18:56;5.33;;;1.10;;
9445;SDS011;4761;49.490;10.908;2023-04-25T14:21:23;1.20;;;0.83;;
9445;SDS011;4761;49.490;10.908;2023-04-25T14:23:48;4.97;;;0.90;;
9445;SDS011;4761;49.490;10.908;2023-04-25T14:26:14;3.10;;;1.00;;
9445;SDS011;4761;49.490;10.908;2023-04-25T14:28:39;1.40;;;0.90;;
9445;SDS011;4761;49.490;10.908;2023-04-25T14:31:05;1.13;;;0.90;;
9445;SDS011;4761;49.490;10.908;2023-04-25T14:33:31;2.20;;;1.20;;
9445;SDS011;4761;49.490;10.908;2023-04-25T14:35:56;2.07;;;1.10;;
9445;SDS011;4761;49.490;10.908;2023-04-25T14:38:22;1.13;;;0.70;;
9445;SDS011;4761;49.490;10.908;2023-04-25T14:40:49;2.23;;;0.97;;
9445;SDS011;4761;49.490;10.908;2023-04-25T14:43:15;1.37;;;0.90;;
9445;SDS011;4761;49.490;10.908;2023-04-25T14:45:41;1.60;;;1.10;;
9445;SDS011;4761;49.490;10.908;2023-04-25T14:48:06;2.37;;;0.97;;
9445;SDS011;4761;49.490;10.908;2023-04-25T14:50:32;3.50;;;0.83;;
9445;SDS011;4761;49.490;10.908;2023-04-25T14:52:58;1.23;;;1.03;;
9445;SDS011;4761;49.490;10.908;2023-04-25T14:55:25;1.50;;;0.80;;
9445;SDS011;4761;49.490;10.908;2023-04-25T14:57:52;2.00;;;1.00;;
9445;SDS011;4761;49.490;10.908;2023-04-25T15:00:19;1.40;;;0.90;;
9445;SDS011;4761;49.490;10.908;2023-04-25T15:02:45;3.77;;;1.20;;
9445;SDS011;4761;49.490;10.908;2023-04-25T15:05:12;3.17;;;1.00;;
9445;SDS011;4761;49.490;10.908;2023-04-25T15:07:38;1.43;;;0.90;;